Página principal
METAR-TAF:

METAR-TAF

Aeroportos :

Koyuk, Alasca, Estados Unidos

latitude: 64-56-02N, longitude: 161-09-29W, altura: 37 m

Observação actual do tempo

O boletim foi feito há 59 minutos, às 08:56 UTC
Vento 4 kt de sul
Temperatura 7°C
Humidade 87%
Pressão 1024 hPa
Visibilidade: 16.1 km

METAR: PAKK 150856Z AUTO 18004KT 10SM 07/05 A3025 RMK AO2 SLPNO 6//// T00720050 400720072

Hora: 01:55 (09:55 UTC)


TAF: em falta

Observações e previsões do tempo de mais de 4000 aeroportos (mensagens METAR e TAF).

As estações disponíveis são os pontos amarelos e vermelhos sobre o mapa.

Mova o rato sobre o mapa para ver o nome da estação.

Depois clique no ponto para visualizar as observações e previsões meteorológicas.

Para alterar o mapa : clique nos botões verdes com uma cruz preta para aumentar o zoom; no botão verde com uma pitada de zoom; ou nas setas verdes para mapas adjacentes.


METAR-TAF: